sensor_id;sensor_type;location;lat;lon;timestamp;P1;durP1;ratioP1;P2;durP2;ratioP2
77726;SDS011;68312;53.502;10.030;2023-07-30T00:02:14;7.28;;;4.78;;
77726;SDS011;68312;53.502;10.030;2023-07-30T00:04:39;5.90;;;3.67;;
77726;SDS011;68312;53.502;10.030;2023-07-30T00:07:05;7.85;;;4.15;;
77726;SDS011;68312;53.502;10.030;2023-07-30T00:09:30;8.05;;;4.78;;
77726;SDS011;68312;53.502;10.030;2023-07-30T00:11:56;8.55;;;3.72;;
77726;SDS011;68312;53.502;10.030;2023-07-30T00:14:21;6.90;;;4.10;;
77726;SDS011;68312;53.502;10.030;2023-07-30T00:16:46;8.27;;;3.92;;
77726;SDS011;68312;53.502;10.030;2023-07-30T00:19:12;7.90;;;4.53;;
77726;SDS011;68312;53.502;10.030;2023-07-30T00:21:37;10.43;;;5.43;;
77726;SDS011;68312;53.502;10.030;2023-07-30T00:24:03;9.68;;;4.60;;
77726;SDS011;68312;53.502;10.030;2023-07-30T00:26:28;6.32;;;4.00;;
77726;SDS011;68312;53.502;10.030;2023-07-30T00:28:55;10.18;;;3.95;;
77726;SDS011;68312;53.502;10.030;2023-07-30T00:31:20;8.63;;;4.20;;
77726;SDS011;68312;53.502;10.030;2023-07-30T00:33:45;7.70;;;4.10;;
77726;SDS011;68312;53.502;10.030;2023-07-30T00:39:00;8.93;;;4.28;;
77726;SDS011;68312;53.502;10.030;2023-07-30T00:41:26;6.03;;;4.10;;
77726;SDS011;68312;53.502;10.030;2023-07-30T00:43:51;5.50;;;3.78;;
77726;SDS011;68312;53.502;10.030;2023-07-30T00:46:16;6.65;;;3.90;;
77726;SDS011;68312;53.502;10.030;2023-07-30T00:48:42;10.68;;;4.10;;
77726;SDS011;68312;53.502;10.030;2023-07-30T00:51:09;8.23;;;3.65;;
77726;SDS011;68312;53.502;10.030;2023-07-30T00:53:38;6.82;;;3.90;;
77726;SDS011;68312;53.502;10.030;2023-07-30T00:56:03;8.10;;;3.90;;
77726;SDS011;68312;53.502;10.030;2023-07-30T00:58:29;6.85;;;3.92;;
77726;SDS011;68312;53.502;10.030;2023-07-30T01:00:55;7.07;;;4.03;;
77726;SDS011;68312;53.502;10.030;2023-07-30T01:03:21;7.20;;;3.15;;
77726;SDS011;68312;53.502;10.030;2023-07-30T01:05:47;7.90;;;3.65;;
77726;SDS011;68312;53.502;10.030;2023-07-30T01:08:13;7.00;;;3.28;;
77726;SDS011;68312;53.502;10.030;2023-07-30T01:10:38;5.10;;;3.25;;
77726;SDS011;68312;53.502;10.030;2023-07-30T01:13:06;6.63;;;3.40;;
77726;SDS011;68312;53.502;10.030;2023-07-30T01:15:34;5.45;;;3.33;;
77726;SDS011;68312;53.502;10.030;2023-07-30T01:18:02;5.65;;;3.20;;
77726;SDS011;68312;53.502;10.030;2023-07-30T01:20:30;6.18;;;3.58;;
77726;SDS011;68312;53.502;10.030;2023-07-30T01:22:58;5.55;;;3.38;;
77726;SDS011;68312;53.502;10.030;2023-07-30T01:25:24;5.95;;;3.35;;
77726;SDS011;68312;53.502;10.030;2023-07-30T01:27:59;6.78;;;3.67;;
77726;SDS011;68312;53.502;10.030;2023-07-30T01:30:27;6.38;;;3.25;;
77726;SDS011;68312;53.502;10.030;2023-07-30T01:32:57;5.85;;;3.63;;
77726;SDS011;68312;53.502;10.030;2023-07-30T01:35:27;12.65;;;4.22;;
77726;SDS011;68312;53.502;10.030;2023-07-30T01:37:53;7.22;;;3.35;;
77726;SDS011;68312;53.502;10.030;2023-07-30T01:40:20;5.88;;;3.60;;
77726;SDS011;68312;53.502;10.030;2023-07-30T01:42:46;6.20;;;3.08;;
77726;SDS011;68312;53.502;10.030;2023-07-30T01:45:13;5.07;;;3.20;;
77726;SDS011;68312;53.502;10.030;2023-07-30T01:47:39;5.10;;;3.33;;
77726;SDS011;68312;53.502;10.030;2023-07-30T01:50:04;6.30;;;3.42;;
77726;SDS011;68312;53.502;10.030;2023-07-30T01:52:30;6.38;;;3.80;;
77726;SDS011;68312;53.502;10.030;2023-07-30T01:54:55;6.43;;;3.67;;
77726;SDS011;68312;53.502;10.030;2023-07-30T01:57:23;9.43;;;4.25;;
77726;SDS011;68312;53.502;10.030;2023-07-30T01:59:48;6.18;;;3.67;;
77726;SDS011;68312;53.502;10.030;2023-07-30T02:02:14;7.15;;;3.78;;
77726;SDS011;68312;53.502;10.030;2023-07-30T02:04:39;8.18;;;3.40;;
77726;SDS011;68312;53.502;10.030;2023-07-30T02:07:04;8.63;;;4.10;;
77726;SDS011;68312;53.502;10.030;2023-07-30T02:09:30;6.70;;;4.00;;
77726;SDS011;68312;53.502;10.030;2023-07-30T02:11:55;7.60;;;4.20;;
77726;SDS011;68312;53.502;10.030;2023-07-30T02:14:21;6.78;;;3.88;;
77726;SDS011;68312;53.502;10.030;2023-07-30T02:16:46;9.30;;;4.13;;
77726;SDS011;68312;53.502;10.030;2023-07-30T02:19:12;5.07;;;3.67;;
77726;SDS011;68312;53.502;10.030;2023-07-30T02:21:37;9.80;;;4.63;;
77726;SDS011;68312;53.502;10.030;2023-07-30T02:24:07;6.25;;;3.58;;
77726;SDS011;68312;53.502;10.030;2023-07-30T02:26:35;6.43;;;3.90;;
77726;SDS011;68312;53.502;10.030;2023-07-30T02:29:00;13.93;;;4.70;;
77726;SDS011;68312;53.502;10.030;2023-07-30T02:31:26;10.55;;;4.63;;
77726;SDS011;68312;53.502;10.030;2023-07-30T02:33:52;8.60;;;4.57;;
77726;SDS011;68312;53.502;10.030;2023-07-30T02:36:17;10.13;;;4.32;;
77726;SDS011;68312;53.502;10.030;2023-07-30T02:38:42;5.65;;;3.95;;
77726;SDS011;68312;53.502;10.030;2023-07-30T02:41:08;5.88;;;3.55;;
77726;SDS011;68312;53.502;10.030;2023-07-30T02:46:29;7.95;;;5.00;;
77726;SDS011;68312;53.502;10.030;2023-07-30T02:48:55;8.80;;;5.10;;
77726;SDS011;68312;53.502;10.030;2023-07-30T02:51:20;7.30;;;4.40;;
77726;SDS011;68312;53.502;10.030;2023-07-30T02:53:46;7.55;;;4.00;;
77726;SDS011;68312;53.502;10.030;2023-07-30T02:56:11;8.15;;;5.03;;
77726;SDS011;68312;53.502;10.030;2023-07-30T02:58:36;9.95;;;5.50;;
77726;SDS011;68312;53.502;10.030;2023-07-30T03:01:08;9.70;;;5.13;;
77726;SDS011;68312;53.502;10.030;2023-07-30T03:03:34;8.05;;;5.30;;
77726;SDS011;68312;53.502;10.030;2023-07-30T03:06:00;11.15;;;5.68;;
77726;SDS011;68312;53.502;10.030;2023-07-30T03:08:25;9.63;;;5.55;;
77726;SDS011;68312;53.502;10.030;2023-07-30T03:10:51;11.35;;;5.38;;
77726;SDS011;68312;53.502;10.030;2023-07-30T03:13:16;12.93;;;6.32;;
77726;SDS011;68312;53.502;10.030;2023-07-30T03:15:41;11.05;;;6.65;;
77726;SDS011;68312;53.502;10.030;2023-07-30T03:18:07;11.70;;;6.45;;
77726;SDS011;68312;53.502;10.030;2023-07-30T03:20:32;11.38;;;6.70;;
77726;SDS011;68312;53.502;10.030;2023-07-30T03:22:58;10.98;;;6.28;;
77726;SDS011;68312;53.502;10.030;2023-07-30T03:25:23;10.35;;;6.00;;
77726;SDS011;68312;53.502;10.030;2023-07-30T03:27:48;14.90;;;6.90;;
77726;SDS011;68312;53.502;10.030;2023-07-30T03:30:14;11.75;;;5.97;;
77726;SDS011;68312;53.502;10.030;2023-07-30T03:32:40;12.65;;;6.07;;
77726;SDS011;68312;53.502;10.030;2023-07-30T03:35:05;12.55;;;6.35;;
77726;SDS011;68312;53.502;10.030;2023-07-30T03:37:31;11.98;;;5.68;;
77726;SDS011;68312;53.502;10.030;2023-07-30T03:39:57;12.20;;;6.03;;
77726;SDS011;68312;53.502;10.030;2023-07-30T03:42:22;13.00;;;6.25;;
77726;SDS011;68312;53.502;10.030;2023-07-30T03:44:47;15.50;;;6.43;;
77726;SDS011;68312;53.502;10.030;2023-07-30T03:47:13;13.25;;;6.35;;
77726;SDS011;68312;53.502;10.030;2023-07-30T03:49:41;12.32;;;6.47;;
77726;SDS011;68312;53.502;10.030;2023-07-30T03:52:06;11.88;;;5.63;;
77726;SDS011;68312;53.502;10.030;2023-07-30T03:54:32;13.07;;;6.15;;
77726;SDS011;68312;53.502;10.030;2023-07-30T03:56:57;8.13;;;5.00;;
77726;SDS011;68312;53.502;10.030;2023-07-30T03:59:23;9.48;;;4.78;;
77726;SDS011;68312;53.502;10.030;2023-07-30T04:01:49;12.10;;;5.13;;
77726;SDS011;68312;53.502;10.030;2023-07-30T04:04:18;10.50;;;5.30;;
77726;SDS011;68312;53.502;10.030;2023-07-30T04:06:43;10.43;;;4.75;;
77726;SDS011;68312;53.502;10.030;2023-07-30T04:09:09;10.52;;;4.78;;
77726;SDS011;68312;53.502;10.030;2023-07-30T04:11:34;10.95;;;4.75;;
77726;SDS011;68312;53.502;10.030;2023-07-30T04:13:59;10.82;;;4.95;;
77726;SDS011;68312;53.502;10.030;2023-07-30T04:16:25;9.60;;;4.82;;
77726;SDS011;68312;53.502;10.030;2023-07-30T04:18:50;12.20;;;5.35;;
77726;SDS011;68312;53.502;10.030;2023-07-30T04:21:15;10.35;;;5.63;;
77726;SDS011;68312;53.502;10.030;2023-07-30T04:23:41;10.77;;;4.93;;
77726;SDS011;68312;53.502;10.030;2023-07-30T04:26:06;14.25;;;5.50;;
77726;SDS011;68312;53.502;10.030;2023-07-30T04:28:32;8.63;;;3.92;;
77726;SDS011;68312;53.502;10.030;2023-07-30T04:30:57;9.65;;;4.80;;
77726;SDS011;68312;53.502;10.030;2023-07-30T04:33:23;12.05;;;4.93;;
77726;SDS011;68312;53.502;10.030;2023-07-30T04:35:48;7.68;;;4.35;;
77726;SDS011;68312;53.502;10.030;2023-07-30T04:38:14;9.57;;;4.40;;
77726;SDS011;68312;53.502;10.030;2023-07-30T04:40:42;7.10;;;4.50;;
77726;SDS011;68312;53.502;10.030;2023-07-30T04:43:07;9.73;;;4.68;;
77726;SDS011;68312;53.502;10.030;2023-07-30T04:45:33;10.30;;;4.75;;
77726;SDS011;68312;53.502;10.030;2023-07-30T04:47:58;10.75;;;5.30;;
77726;SDS011;68312;53.502;10.030;2023-07-30T04:50:24;13.05;;;5.30;;
77726;SDS011;68312;53.502;10.030;2023-07-30T04:52:49;13.05;;;5.47;;
77726;SDS011;68312;53.502;10.030;2023-07-30T04:55:14;11.80;;;5.20;;
77726;SDS011;68312;53.502;10.030;2023-07-30T04:57:40;9.27;;;4.85;;
77726;SDS011;68312;53.502;10.030;2023-07-30T05:00:05;17.10;;;5.20;;
77726;SDS011;68312;53.502;10.030;2023-07-30T05:02:32;10.25;;;5.30;;
77726;SDS011;68312;53.502;10.030;2023-07-30T05:04:57;11.07;;;5.57;;
77726;SDS011;68312;53.502;10.030;2023-07-30T05:07:23;12.13;;;5.93;;
77726;SDS011;68312;53.502;10.030;2023-07-30T05:09:48;13.35;;;5.35;;
77726;SDS011;68312;53.502;10.030;2023-07-30T05:15:02;10.63;;;5.43;;
77726;SDS011;68312;53.502;10.030;2023-07-30T05:17:28;18.42;;;5.65;;
77726;SDS011;68312;53.502;10.030;2023-07-30T05:19:55;10.43;;;5.00;;
77726;SDS011;68312;53.502;10.030;2023-07-30T05:22:20;10.55;;;5.05;;
77726;SDS011;68312;53.502;10.030;2023-07-30T05:24:45;15.10;;;5.43;;
77726;SDS011;68312;53.502;10.030;2023-07-30T05:27:11;14.25;;;5.07;;
77726;SDS011;68312;53.502;10.030;2023-07-30T05:29:36;13.32;;;5.03;;
77726;SDS011;68312;53.502;10.030;2023-07-30T05:32:01;13.30;;;4.97;;
77726;SDS011;68312;53.502;10.030;2023-07-30T05:34:27;13.73;;;5.15;;
77726;SDS011;68312;53.502;10.030;2023-07-30T05:36:52;12.82;;;5.53;;
77726;SDS011;68312;53.502;10.030;2023-07-30T05:39:18;11.48;;;4.90;;
77726;SDS011;68312;53.502;10.030;2023-07-30T05:41:43;14.63;;;4.80;;
77726;SDS011;68312;53.502;10.030;2023-07-30T05:44:08;14.13;;;4.93;;
77726;SDS011;68312;53.502;10.030;2023-07-30T05:46:34;9.75;;;5.05;;
77726;SDS011;68312;53.502;10.030;2023-07-30T05:48:59;13.30;;;5.00;;
77726;SDS011;68312;53.502;10.030;2023-07-30T05:54:28;13.27;;;4.82;;
77726;SDS011;68312;53.502;10.030;2023-07-30T05:56:53;13.93;;;5.38;;
77726;SDS011;68312;53.502;10.030;2023-07-30T05:59:19;9.18;;;4.35;;
77726;SDS011;68312;53.502;10.030;2023-07-30T06:01:44;10.18;;;5.07;;
77726;SDS011;68312;53.502;10.030;2023-07-30T06:04:10;11.75;;;4.43;;
77726;SDS011;68312;53.502;10.030;2023-07-30T06:09:35;15.20;;;4.38;;
77726;SDS011;68312;53.502;10.030;2023-07-30T06:12:01;16.83;;;4.50;;
77726;SDS011;68312;53.502;10.030;2023-07-30T06:14:26;14.10;;;4.53;;
77726;SDS011;68312;53.502;10.030;2023-07-30T06:16:52;9.43;;;4.68;;
77726;SDS011;68312;53.502;10.030;2023-07-30T06:19:18;10.93;;;4.72;;
77726;SDS011;68312;53.502;10.030;2023-07-30T06:21:44;10.02;;;4.68;;
77726;SDS011;68312;53.502;10.030;2023-07-30T06:24:10;10.32;;;4.40;;
77726;SDS011;68312;53.502;10.030;2023-07-30T06:26:35;16.08;;;5.00;;
77726;SDS011;68312;53.502;10.030;2023-07-30T06:29:01;15.25;;;4.90;;
77726;SDS011;68312;53.502;10.030;2023-07-30T06:31:26;19.80;;;5.13;;
77726;SDS011;68312;53.502;10.030;2023-07-30T06:33:52;13.27;;;4.70;;
77726;SDS011;68312;53.502;10.030;2023-07-30T06:36:17;13.07;;;5.25;;
77726;SDS011;68312;53.502;10.030;2023-07-30T06:38:43;14.70;;;5.10;;
77726;SDS011;68312;53.502;10.030;2023-07-30T06:41:08;14.27;;;4.80;;
77726;SDS011;68312;53.502;10.030;2023-07-30T06:43:33;11.77;;;4.97;;
77726;SDS011;68312;53.502;10.030;2023-07-30T06:45:59;14.23;;;5.32;;
77726;SDS011;68312;53.502;10.030;2023-07-30T06:48:25;13.25;;;5.13;;
77726;SDS011;68312;53.502;10.030;2023-07-30T06:50:50;17.38;;;6.00;;
77726;SDS011;68312;53.502;10.030;2023-07-30T06:53:15;10.40;;;5.80;;
77726;SDS011;68312;53.502;10.030;2023-07-30T06:55:41;16.30;;;5.53;;
77726;SDS011;68312;53.502;10.030;2023-07-30T06:58:06;20.45;;;6.75;;
77726;SDS011;68312;53.502;10.030;2023-07-30T07:00:31;16.42;;;6.10;;
77726;SDS011;68312;53.502;10.030;2023-07-30T07:02:57;12.07;;;6.70;;
77726;SDS011;68312;53.502;10.030;2023-07-30T07:08:43;16.35;;;6.07;;
77726;SDS011;68312;53.502;10.030;2023-07-30T07:11:09;11.40;;;6.07;;
77726;SDS011;68312;53.502;10.030;2023-07-30T07:13:34;21.33;;;8.52;;
77726;SDS011;68312;53.502;10.030;2023-07-30T07:16:00;16.80;;;7.47;;
77726;SDS011;68312;53.502;10.030;2023-07-30T07:18:25;13.77;;;6.82;;
77726;SDS011;68312;53.502;10.030;2023-07-30T07:24:31;14.10;;;6.78;;
77726;SDS011;68312;53.502;10.030;2023-07-30T07:26:57;14.55;;;6.82;;
77726;SDS011;68312;53.502;10.030;2023-07-30T07:29:22;15.57;;;6.05;;
77726;SDS011;68312;53.502;10.030;2023-07-30T07:31:48;17.52;;;5.93;;
77726;SDS011;68312;53.502;10.030;2023-07-30T07:34:14;10.65;;;5.40;;
77726;SDS011;68312;53.502;10.030;2023-07-30T07:36:39;16.20;;;5.28;;
77726;SDS011;68312;53.502;10.030;2023-07-30T07:39:05;12.68;;;4.95;;
77726;SDS011;68312;53.502;10.030;2023-07-30T07:41:31;15.38;;;6.03;;
77726;SDS011;68312;53.502;10.030;2023-07-30T07:43:57;16.13;;;5.40;;
77726;SDS011;68312;53.502;10.030;2023-07-30T07:46:23;11.13;;;5.68;;
77726;SDS011;68312;53.502;10.030;2023-07-30T07:48:49;17.10;;;5.28;;
77726;SDS011;68312;53.502;10.030;2023-07-30T07:51:15;11.88;;;5.20;;
77726;SDS011;68312;53.502;10.030;2023-07-30T07:53:40;11.80;;;5.05;;
77726;SDS011;68312;53.502;10.030;2023-07-30T07:56:06;15.30;;;5.93;;
77726;SDS011;68312;53.502;10.030;2023-07-30T07:58:31;12.00;;;6.10;;
77726;SDS011;68312;53.502;10.030;2023-07-30T08:00:57;13.10;;;5.60;;
77726;SDS011;68312;53.502;10.030;2023-07-30T08:03:24;12.18;;;5.35;;
77726;SDS011;68312;53.502;10.030;2023-07-30T08:05:51;16.10;;;5.47;;
77726;SDS011;68312;53.502;10.030;2023-07-30T08:08:17;17.77;;;5.68;;
77726;SDS011;68312;53.502;10.030;2023-07-30T08:10:43;11.90;;;5.78;;
77726;SDS011;68312;53.502;10.030;2023-07-30T08:13:10;10.18;;;4.97;;
77726;SDS011;68312;53.502;10.030;2023-07-30T08:15:35;12.73;;;4.97;;
77726;SDS011;68312;53.502;10.030;2023-07-30T08:18:01;14.02;;;4.40;;
77726;SDS011;68312;53.502;10.030;2023-07-30T08:20:26;16.33;;;4.85;;
77726;SDS011;68312;53.502;10.030;2023-07-30T08:22:52;13.07;;;4.20;;
77726;SDS011;68312;53.502;10.030;2023-07-30T08:25:17;12.93;;;4.22;;
77726;SDS011;68312;53.502;10.030;2023-07-30T08:27:42;11.70;;;3.42;;
77726;SDS011;68312;53.502;10.030;2023-07-30T08:30:08;9.45;;;3.08;;
77726;SDS011;68312;53.502;10.030;2023-07-30T08:32:34;8.65;;;2.95;;
77726;SDS011;68312;53.502;10.030;2023-07-30T08:35:00;8.55;;;3.10;;
77726;SDS011;68312;53.502;10.030;2023-07-30T08:37:26;8.10;;;2.30;;
77726;SDS011;68312;53.502;10.030;2023-07-30T08:39:51;6.68;;;2.50;;
77726;SDS011;68312;53.502;10.030;2023-07-30T08:42:17;8.60;;;2.30;;
77726;SDS011;68312;53.502;10.030;2023-07-30T08:44:42;10.73;;;3.05;;
77726;SDS011;68312;53.502;10.030;2023-07-30T08:47:08;7.47;;;3.22;;
77726;SDS011;68312;53.502;10.030;2023-07-30T08:49:35;6.22;;;1.83;;
77726;SDS011;68312;53.502;10.030;2023-07-30T08:52:00;10.13;;;2.38;;
77726;SDS011;68312;53.502;10.030;2023-07-30T08:54:29;5.93;;;2.20;;
77726;SDS011;68312;53.502;10.030;2023-07-30T08:56:56;8.57;;;1.90;;
77726;SDS011;68312;53.502;10.030;2023-07-30T08:59:23;9.57;;;2.75;;
77726;SDS011;68312;53.502;10.030;2023-07-30T09:01:51;8.88;;;2.38;;
77726;SDS011;68312;53.502;10.030;2023-07-30T09:04:18;11.50;;;2.65;;
77726;SDS011;68312;53.502;10.030;2023-07-30T09:06:48;10.43;;;3.00;;
77726;SDS011;68312;53.502;10.030;2023-07-30T09:09:15;8.88;;;2.95;;
77726;SDS011;68312;53.502;10.030;2023-07-30T09:11:40;13.63;;;3.55;;
77726;SDS011;68312;53.502;10.030;2023-07-30T09:14:06;8.40;;;2.70;;
77726;SDS011;68312;53.502;10.030;2023-07-30T09:16:32;8.52;;;2.40;;
77726;SDS011;68312;53.502;10.030;2023-07-30T09:18:58;11.50;;;2.33;;
77726;SDS011;68312;53.502;10.030;2023-07-30T09:21:33;8.32;;;2.22;;
77726;SDS011;68312;53.502;10.030;2023-07-30T09:24:03;6.97;;;2.33;;
77726;SDS011;68312;53.502;10.030;2023-07-30T09:26:42;10.77;;;2.40;;
77726;SDS011;68312;53.502;10.030;2023-07-30T09:29:09;6.97;;;2.17;;
77726;SDS011;68312;53.502;10.030;2023-07-30T09:31:52;8.35;;;2.97;;
77726;SDS011;68312;53.502;10.030;2023-07-30T09:34:20;5.65;;;1.95;;
77726;SDS011;68312;53.502;10.030;2023-07-30T09:36:49;9.45;;;2.60;;
77726;SDS011;68312;53.502;10.030;2023-07-30T09:39:18;6.43;;;2.40;;
77726;SDS011;68312;53.502;10.030;2023-07-30T09:41:50;10.38;;;2.92;;
77726;SDS011;68312;53.502;10.030;2023-07-30T09:44:17;9.73;;;2.42;;
77726;SDS011;68312;53.502;10.030;2023-07-30T09:46:45;12.02;;;2.70;;
77726;SDS011;68312;53.502;10.030;2023-07-30T09:49:15;6.28;;;2.10;;
77726;SDS011;68312;53.502;10.030;2023-07-30T09:51:44;7.43;;;2.33;;
77726;SDS011;68312;53.502;10.030;2023-07-30T09:54:13;5.38;;;1.88;;
77726;SDS011;68312;53.502;10.030;2023-07-30T09:56:40;10.77;;;2.35;;
77726;SDS011;68312;53.502;10.030;2023-07-30T09:59:07;6.57;;;2.15;;
77726;SDS011;68312;53.502;10.030;2023-07-30T10:01:44;7.55;;;1.85;;
77726;SDS011;68312;53.502;10.030;2023-07-30T10:04:14;5.60;;;2.05;;
77726;SDS011;68312;53.502;10.030;2023-07-30T10:06:46;8.27;;;2.00;;
77726;SDS011;68312;53.502;10.030;2023-07-30T10:09:20;9.43;;;1.98;;
77726;SDS011;68312;53.502;10.030;2023-07-30T10:11:51;8.05;;;2.67;;
77726;SDS011;68312;53.502;10.030;2023-07-30T10:14:19;6.60;;;2.03;;
77726;SDS011;68312;53.502;10.030;2023-07-30T10:16:54;8.32;;;2.45;;
77726;SDS011;68312;53.502;10.030;2023-07-30T10:19:25;5.65;;;1.90;;
77726;SDS011;68312;53.502;10.030;2023-07-30T10:22:02;8.45;;;2.22;;
77726;SDS011;68312;53.502;10.030;2023-07-30T10:25:04;7.32;;;2.20;;
77726;SDS011;68312;53.502;10.030;2023-07-30T10:27:39;11.90;;;2.60;;
77726;SDS011;68312;53.502;10.030;2023-07-30T10:30:15;8.85;;;2.13;;
77726;SDS011;68312;53.502;10.030;2023-07-30T10:32:51;8.35;;;2.10;;
77726;SDS011;68312;53.502;10.030;2023-07-30T10:38:18;8.80;;;1.98;;
77726;SDS011;68312;53.502;10.030;2023-07-30T10:41:06;4.82;;;2.13;;
77726;SDS011;68312;53.502;10.030;2023-07-30T10:43:35;7.00;;;1.92;;
77726;SDS011;68312;53.502;10.030;2023-07-30T10:46:17;8.82;;;2.05;;
77726;SDS011;68312;53.502;10.030;2023-07-30T10:48:44;8.05;;;2.30;;
77726;SDS011;68312;53.502;10.030;2023-07-30T10:51:13;6.95;;;1.95;;
77726;SDS011;68312;53.502;10.030;2023-07-30T10:53:45;4.70;;;1.80;;
77726;SDS011;68312;53.502;10.030;2023-07-30T10:59:05;6.75;;;2.00;;
77726;SDS011;68312;53.502;10.030;2023-07-30T11:01:35;8.60;;;2.40;;
77726;SDS011;68312;53.502;10.030;2023-07-30T11:04:24;8.60;;;2.15;;
77726;SDS011;68312;53.502;10.030;2023-07-30T11:06:50;5.25;;;1.95;;
77726;SDS011;68312;53.502;10.030;2023-07-30T11:09:22;7.55;;;2.35;;
77726;SDS011;68312;53.502;10.030;2023-07-30T11:11:50;7.55;;;1.95;;
77726;SDS011;68312;53.502;10.030;2023-07-30T11:14:24;5.32;;;1.80;;
77726;SDS011;68312;53.502;10.030;2023-07-30T11:16:57;11.73;;;2.63;;
77726;SDS011;68312;53.502;10.030;2023-07-30T11:19:25;8.45;;;2.05;;
77726;SDS011;68312;53.502;10.030;2023-07-30T11:21:55;6.00;;;1.90;;
77726;SDS011;68312;53.502;10.030;2023-07-30T11:24:22;5.55;;;1.73;;
77726;SDS011;68312;53.502;10.030;2023-07-30T11:27:02;4.22;;;1.50;;
77726;SDS011;68312;53.502;10.030;2023-07-30T11:29:28;7.63;;;1.80;;
77726;SDS011;68312;53.502;10.030;2023-07-30T11:31:55;6.72;;;1.90;;
77726;SDS011;68312;53.502;10.030;2023-07-30T11:34:24;7.97;;;1.83;;
77726;SDS011;68312;53.502;10.030;2023-07-30T11:36:51;4.85;;;1.50;;
77726;SDS011;68312;53.502;10.030;2023-07-30T11:39:18;7.68;;;1.88;;
77726;SDS011;68312;53.502;10.030;2023-07-30T11:41:43;5.22;;;1.42;;
77726;SDS011;68312;53.502;10.030;2023-07-30T11:44:28;4.88;;;1.40;;
77726;SDS011;68312;53.502;10.030;2023-07-30T11:47:03;4.80;;;1.33;;
77726;SDS011;68312;53.502;10.030;2023-07-30T11:49:30;5.20;;;1.35;;
77726;SDS011;68312;53.502;10.030;2023-07-30T11:52:05;7.07;;;1.70;;
77726;SDS011;68312;53.502;10.030;2023-07-30T11:54:35;5.68;;;1.60;;
77726;SDS011;68312;53.502;10.030;2023-07-30T11:57:02;4.32;;;1.40;;
77726;SDS011;68312;53.502;10.030;2023-07-30T11:59:27;7.20;;;1.67;;
77726;SDS011;68312;53.502;10.030;2023-07-30T12:01:56;7.45;;;1.70;;
77726;SDS011;68312;53.502;10.030;2023-07-30T12:04:22;3.13;;;1.13;;
77726;SDS011;68312;53.502;10.030;2023-07-30T12:06:50;6.70;;;1.15;;
77726;SDS011;68312;53.502;10.030;2023-07-30T12:09:21;6.05;;;1.30;;
77726;SDS011;68312;53.502;10.030;2023-07-30T12:12:08;7.57;;;1.40;;
77726;SDS011;68312;53.502;10.030;2023-07-30T12:17:14;5.00;;;1.38;;
77726;SDS011;68312;53.502;10.030;2023-07-30T12:19:40;6.10;;;1.50;;
77726;SDS011;68312;53.502;10.030;2023-07-30T12:22:06;3.70;;;1.42;;
77726;SDS011;68312;53.502;10.030;2023-07-30T12:24:32;8.68;;;1.77;;
77726;SDS011;68312;53.502;10.030;2023-07-30T12:26:57;4.70;;;1.42;;
77726;SDS011;68312;53.502;10.030;2023-07-30T12:29:23;6.75;;;1.40;;
77726;SDS011;68312;53.502;10.030;2023-07-30T12:31:49;6.07;;;1.45;;
77726;SDS011;68312;53.502;10.030;2023-07-30T12:34:18;4.28;;;1.63;;
77726;SDS011;68312;53.502;10.030;2023-07-30T12:36:44;4.30;;;1.50;;
77726;SDS011;68312;53.502;10.030;2023-07-30T12:39:10;4.20;;;1.50;;
77726;SDS011;68312;53.502;10.030;2023-07-30T12:41:36;4.95;;;1.17;;
77726;SDS011;68312;53.502;10.030;2023-07-30T12:44:01;4.45;;;1.20;;
77726;SDS011;68312;53.502;10.030;2023-07-30T12:46:30;6.90;;;1.58;;
77726;SDS011;68312;53.502;10.030;2023-07-30T12:48:57;4.20;;;1.40;;
77726;SDS011;68312;53.502;10.030;2023-07-30T12:51:28;5.45;;;1.75;;
77726;SDS011;68312;53.502;10.030;2023-07-30T12:53:54;5.35;;;1.45;;
77726;SDS011;68312;53.502;10.030;2023-07-30T12:56:19;7.10;;;1.55;;
77726;SDS011;68312;53.502;10.030;2023-07-30T12:59:00;4.40;;;1.48;;
77726;SDS011;68312;53.502;10.030;2023-07-30T13:01:25;3.78;;;1.35;;
77726;SDS011;68312;53.502;10.030;2023-07-30T13:03:51;5.43;;;1.50;;
77726;SDS011;68312;53.502;10.030;2023-07-30T13:06:20;7.15;;;1.70;;
77726;SDS011;68312;53.502;10.030;2023-07-30T13:08:46;5.18;;;1.65;;
77726;SDS011;68312;53.502;10.030;2023-07-30T13:11:12;4.68;;;1.70;;
77726;SDS011;68312;53.502;10.030;2023-07-30T13:13:37;5.50;;;2.10;;
77726;SDS011;68312;53.502;10.030;2023-07-30T13:16:03;5.50;;;1.60;;
77726;SDS011;68312;53.502;10.030;2023-07-30T13:18:28;7.20;;;1.63;;
77726;SDS011;68312;53.502;10.030;2023-07-30T13:20:54;4.43;;;1.42;;
77726;SDS011;68312;53.502;10.030;2023-07-30T13:23:20;4.13;;;1.50;;
77726;SDS011;68312;53.502;10.030;2023-07-30T13:25:45;6.40;;;1.70;;
77726;SDS011;68312;53.502;10.030;2023-07-30T13:28:11;5.25;;;1.52;;
77726;SDS011;68312;53.502;10.030;2023-07-30T13:30:36;3.72;;;1.58;;
77726;SDS011;68312;53.502;10.030;2023-07-30T13:33:02;4.80;;;2.00;;
77726;SDS011;68312;53.502;10.030;2023-07-30T13:35:27;11.88;;;3.33;;
77726;SDS011;68312;53.502;10.030;2023-07-30T13:37:53;9.10;;;2.00;;
77726;SDS011;68312;53.502;10.030;2023-07-30T13:40:19;4.97;;;1.90;;
77726;SDS011;68312;53.502;10.030;2023-07-30T13:42:44;5.05;;;1.50;;
77726;SDS011;68312;53.502;10.030;2023-07-30T13:45:09;4.05;;;2.03;;
77726;SDS011;68312;53.502;10.030;2023-07-30T13:47:35;6.63;;;2.28;;
77726;SDS011;68312;53.502;10.030;2023-07-30T13:50:00;7.50;;;1.92;;
77726;SDS011;68312;53.502;10.030;2023-07-30T13:52:26;5.63;;;1.80;;
77726;SDS011;68312;53.502;10.030;2023-07-30T13:54:51;3.05;;;1.75;;
77726;SDS011;68312;53.502;10.030;2023-07-30T13:57:23;3.55;;;1.50;;
77726;SDS011;68312;53.502;10.030;2023-07-30T13:59:50;3.88;;;1.60;;
77726;SDS011;68312;53.502;10.030;2023-07-30T14:02:17;7.65;;;3.00;;
77726;SDS011;68312;53.502;10.030;2023-07-30T14:04:42;4.53;;;1.70;;
77726;SDS011;68312;53.502;10.030;2023-07-30T14:07:07;4.50;;;1.40;;
77726;SDS011;68312;53.502;10.030;2023-07-30T14:09:33;2.80;;;1.65;;
77726;SDS011;68312;53.502;10.030;2023-07-30T14:12:01;4.80;;;1.50;;
77726;SDS011;68312;53.502;10.030;2023-07-30T14:14:30;3.38;;;1.20;;
77726;SDS011;68312;53.502;10.030;2023-07-30T14:16:56;3.40;;;1.10;;
77726;SDS011;68312;53.502;10.030;2023-07-30T14:22:40;4.53;;;1.30;;
77726;SDS011;68312;53.502;10.030;2023-07-30T14:25:06;4.95;;;1.20;;
77726;SDS011;68312;53.502;10.030;2023-07-30T14:27:31;3.50;;;0.90;;
77726;SDS011;68312;53.502;10.030;2023-07-30T14:29:57;5.38;;;1.27;;
77726;SDS011;68312;53.502;10.030;2023-07-30T14:32:23;3.55;;;1.00;;
77726;SDS011;68312;53.502;10.030;2023-07-30T14:34:48;4.82;;;1.38;;
77726;SDS011;68312;53.502;10.030;2023-07-30T14:37:14;4.82;;;2.15;;
77726;SDS011;68312;53.502;10.030;2023-07-30T14:39:40;3.55;;;1.10;;
77726;SDS011;68312;53.502;10.030;2023-07-30T14:42:06;5.22;;;1.08;;
77726;SDS011;68312;53.502;10.030;2023-07-30T14:44:32;4.75;;;1.20;;
77726;SDS011;68312;53.502;10.030;2023-07-30T14:46:58;6.10;;;1.60;;
77726;SDS011;68312;53.502;10.030;2023-07-30T14:49:24;3.60;;;1.30;;
77726;SDS011;68312;53.502;10.030;2023-07-30T14:51:50;3.30;;;1.10;;
77726;SDS011;68312;53.502;10.030;2023-07-30T14:54:16;3.75;;;1.23;;
77726;SDS011;68312;53.502;10.030;2023-07-30T14:56:42;3.85;;;1.10;;
77726;SDS011;68312;53.502;10.030;2023-07-30T14:59:09;4.78;;;1.20;;
77726;SDS011;68312;53.502;10.030;2023-07-30T15:01:34;8.77;;;1.52;;